sensor_id;sensor_type;location;lat;lon;timestamp;P1;durP1;ratioP1;P2;durP2;ratioP2
45358;SDS011;31096;49.292;8.710;2023-06-10T00:01:02;9.15;;;5.63;;
45358;SDS011;31096;49.292;8.710;2023-06-10T00:05:53;6.80;;;5.23;;
45358;SDS011;31096;49.292;8.710;2023-06-10T00:10:43;7.63;;;5.88;;
45358;SDS011;31096;49.292;8.710;2023-06-10T00:15:34;7.03;;;5.40;;
45358;SDS011;31096;49.292;8.710;2023-06-10T00:20:25;6.80;;;5.20;;
45358;SDS011;31096;49.292;8.710;2023-06-10T00:25:16;8.17;;;5.77;;
45358;SDS011;31096;49.292;8.710;2023-06-10T00:30:07;7.90;;;5.75;;
45358;SDS011;31096;49.292;8.710;2023-06-10T00:34:59;6.60;;;4.97;;
45358;SDS011;31096;49.292;8.710;2023-06-10T00:39:50;6.43;;;4.90;;
45358;SDS011;31096;49.292;8.710;2023-06-10T00:44:41;7.40;;;5.10;;
45358;SDS011;31096;49.292;8.710;2023-06-10T00:49:32;7.40;;;4.80;;
45358;SDS011;31096;49.292;8.710;2023-06-10T00:54:23;7.03;;;4.95;;
45358;SDS011;31096;49.292;8.710;2023-06-10T00:59:14;8.10;;;5.13;;
45358;SDS011;31096;49.292;8.710;2023-06-10T01:04:05;7.68;;;5.05;;
45358;SDS011;31096;49.292;8.710;2023-06-10T01:08:57;7.80;;;4.93;;
45358;SDS011;31096;49.292;8.710;2023-06-10T01:13:52;6.97;;;4.80;;
45358;SDS011;31096;49.292;8.710;2023-06-10T01:18:45;7.47;;;5.27;;
45358;SDS011;31096;49.292;8.710;2023-06-10T01:23:36;8.37;;;5.80;;
45358;SDS011;31096;49.292;8.710;2023-06-10T01:28:31;7.07;;;5.20;;
45358;SDS011;31096;49.292;8.710;2023-06-10T01:33:27;6.85;;;5.05;;
45358;SDS011;31096;49.292;8.710;2023-06-10T01:38:25;8.73;;;5.45;;
45358;SDS011;31096;49.292;8.710;2023-06-10T01:43:17;8.50;;;5.43;;
45358;SDS011;31096;49.292;8.710;2023-06-10T01:48:08;6.28;;;4.63;;
45358;SDS011;31096;49.292;8.710;2023-06-10T01:52:59;6.70;;;5.10;;
45358;SDS011;31096;49.292;8.710;2023-06-10T01:57:50;7.32;;;5.07;;
45358;SDS011;31096;49.292;8.710;2023-06-10T02:02:41;7.00;;;4.87;;
45358;SDS011;31096;49.292;8.710;2023-06-10T02:07:32;9.07;;;4.30;;
45358;SDS011;31096;49.292;8.710;2023-06-10T02:12:23;8.40;;;5.07;;
45358;SDS011;31096;49.292;8.710;2023-06-10T02:17:13;8.55;;;4.80;;
45358;SDS011;31096;49.292;8.710;2023-06-10T02:22:04;6.37;;;4.70;;
45358;SDS011;31096;49.292;8.710;2023-06-10T02:26:55;6.20;;;4.73;;
45358;SDS011;31096;49.292;8.710;2023-06-10T02:31:46;6.88;;;5.20;;
45358;SDS011;31096;49.292;8.710;2023-06-10T02:36:37;6.53;;;4.60;;
45358;SDS011;31096;49.292;8.710;2023-06-10T02:41:28;6.75;;;5.00;;
45358;SDS011;31096;49.292;8.710;2023-06-10T02:46:19;7.27;;;5.13;;
45358;SDS011;31096;49.292;8.710;2023-06-10T02:51:10;6.40;;;5.35;;
45358;SDS011;31096;49.292;8.710;2023-06-10T02:56:01;7.27;;;4.43;;
45358;SDS011;31096;49.292;8.710;2023-06-10T03:00:51;6.17;;;4.60;;
45358;SDS011;31096;49.292;8.710;2023-06-10T03:05:42;6.97;;;4.57;;
45358;SDS011;31096;49.292;8.710;2023-06-10T03:10:33;5.90;;;4.65;;
45358;SDS011;31096;49.292;8.710;2023-06-10T03:15:25;6.80;;;4.80;;
45358;SDS011;31096;49.292;8.710;2023-06-10T03:20:18;7.15;;;4.97;;
45358;SDS011;31096;49.292;8.710;2023-06-10T03:25:09;8.07;;;4.97;;
45358;SDS011;31096;49.292;8.710;2023-06-10T03:30:03;5.97;;;4.35;;
45358;SDS011;31096;49.292;8.710;2023-06-10T03:34:55;6.78;;;4.82;;
45358;SDS011;31096;49.292;8.710;2023-06-10T03:39:47;6.23;;;4.60;;
45358;SDS011;31096;49.292;8.710;2023-06-10T03:44:37;6.65;;;5.00;;
45358;SDS011;31096;49.292;8.710;2023-06-10T03:49:28;6.87;;;4.80;;
45358;SDS011;31096;49.292;8.710;2023-06-10T03:54:19;6.53;;;4.93;;
45358;SDS011;31096;49.292;8.710;2023-06-10T03:59:09;7.47;;;5.55;;
45358;SDS011;31096;49.292;8.710;2023-06-10T04:04:00;6.33;;;4.40;;
45358;SDS011;31096;49.292;8.710;2023-06-10T04:08:51;6.70;;;4.87;;
45358;SDS011;31096;49.292;8.710;2023-06-10T04:13:42;7.10;;;5.13;;
45358;SDS011;31096;49.292;8.710;2023-06-10T04:18:32;7.27;;;5.27;;
45358;SDS011;31096;49.292;8.710;2023-06-10T04:23:23;9.50;;;4.93;;
45358;SDS011;31096;49.292;8.710;2023-06-10T04:28:14;7.35;;;5.20;;
45358;SDS011;31096;49.292;8.710;2023-06-10T04:33:05;6.40;;;4.47;;
45358;SDS011;31096;49.292;8.710;2023-06-10T04:37:58;8.98;;;4.78;;
45358;SDS011;31096;49.292;8.710;2023-06-10T04:42:48;6.68;;;4.88;;
45358;SDS011;31096;49.292;8.710;2023-06-10T04:47:40;6.50;;;5.00;;
45358;SDS011;31096;49.292;8.710;2023-06-10T04:52:30;6.65;;;4.60;;
45358;SDS011;31096;49.292;8.710;2023-06-10T04:57:21;6.53;;;4.63;;
45358;SDS011;31096;49.292;8.710;2023-06-10T05:02:12;6.87;;;5.03;;
45358;SDS011;31096;49.292;8.710;2023-06-10T05:07:03;7.55;;;4.63;;
45358;SDS011;31096;49.292;8.710;2023-06-10T05:11:54;6.80;;;4.80;;
45358;SDS011;31096;49.292;8.710;2023-06-10T05:16:45;6.23;;;4.90;;
45358;SDS011;31096;49.292;8.710;2023-06-10T05:21:35;6.67;;;5.53;;
45358;SDS011;31096;49.292;8.710;2023-06-10T05:26:26;6.30;;;5.00;;
45358;SDS011;31096;49.292;8.710;2023-06-10T05:31:18;7.28;;;5.25;;
45358;SDS011;31096;49.292;8.710;2023-06-10T05:36:09;6.68;;;5.07;;
45358;SDS011;31096;49.292;8.710;2023-06-10T05:41:00;7.30;;;5.07;;
45358;SDS011;31096;49.292;8.710;2023-06-10T05:45:51;7.83;;;5.67;;
45358;SDS011;31096;49.292;8.710;2023-06-10T05:50:42;6.80;;;5.15;;
45358;SDS011;31096;49.292;8.710;2023-06-10T05:55:38;7.35;;;5.30;;
45358;SDS011;31096;49.292;8.710;2023-06-10T06:00:28;6.60;;;5.20;;
45358;SDS011;31096;49.292;8.710;2023-06-10T06:05:19;7.53;;;5.10;;
45358;SDS011;31096;49.292;8.710;2023-06-10T06:10:10;6.85;;;5.45;;
45358;SDS011;31096;49.292;8.710;2023-06-10T06:15:00;7.87;;;5.53;;
45358;SDS011;31096;49.292;8.710;2023-06-10T06:19:51;6.65;;;5.10;;
45358;SDS011;31096;49.292;8.710;2023-06-10T06:24:42;7.17;;;5.17;;
45358;SDS011;31096;49.292;8.710;2023-06-10T06:29:33;7.72;;;5.30;;
45358;SDS011;31096;49.292;8.710;2023-06-10T06:34:24;7.10;;;5.50;;
45358;SDS011;31096;49.292;8.710;2023-06-10T06:39:14;5.77;;;4.53;;
45358;SDS011;31096;49.292;8.710;2023-06-10T06:44:05;7.43;;;5.20;;
45358;SDS011;31096;49.292;8.710;2023-06-10T06:48:55;7.30;;;5.30;;
45358;SDS011;31096;49.292;8.710;2023-06-10T06:53:46;7.60;;;5.40;;
45358;SDS011;31096;49.292;8.710;2023-06-10T06:58:40;6.47;;;5.35;;
45358;SDS011;31096;49.292;8.710;2023-06-10T07:03:31;6.70;;;4.68;;
45358;SDS011;31096;49.292;8.710;2023-06-10T07:08:22;7.10;;;4.97;;
45358;SDS011;31096;49.292;8.710;2023-06-10T07:13:13;6.47;;;4.80;;
45358;SDS011;31096;49.292;8.710;2023-06-10T07:18:04;6.73;;;4.93;;
45358;SDS011;31096;49.292;8.710;2023-06-10T07:22:55;5.93;;;4.75;;
45358;SDS011;31096;49.292;8.710;2023-06-10T07:27:45;6.50;;;5.03;;
45358;SDS011;31096;49.292;8.710;2023-06-10T07:32:36;5.90;;;4.47;;
45358;SDS011;31096;49.292;8.710;2023-06-10T07:37:27;6.43;;;4.33;;
45358;SDS011;31096;49.292;8.710;2023-06-10T07:42:17;6.17;;;4.60;;
45358;SDS011;31096;49.292;8.710;2023-06-10T07:47:08;6.00;;;4.70;;
45358;SDS011;31096;49.292;8.710;2023-06-10T07:51:59;6.55;;;4.88;;
45358;SDS011;31096;49.292;8.710;2023-06-10T07:56:50;6.73;;;4.93;;
45358;SDS011;31096;49.292;8.710;2023-06-10T08:01:42;6.93;;;4.80;;
45358;SDS011;31096;49.292;8.710;2023-06-10T08:06:33;6.03;;;4.88;;
45358;SDS011;31096;49.292;8.710;2023-06-10T08:11:24;6.30;;;4.90;;
45358;SDS011;31096;49.292;8.710;2023-06-10T08:16:19;8.07;;;5.60;;
45358;SDS011;31096;49.292;8.710;2023-06-10T08:21:09;6.20;;;5.07;;
45358;SDS011;31096;49.292;8.710;2023-06-10T08:26:01;6.63;;;4.43;;
45358;SDS011;31096;49.292;8.710;2023-06-10T08:30:52;7.65;;;4.85;;
45358;SDS011;31096;49.292;8.710;2023-06-10T08:35:43;6.18;;;5.30;;
45358;SDS011;31096;49.292;8.710;2023-06-10T08:40:33;6.57;;;5.50;;
45358;SDS011;31096;49.292;8.710;2023-06-10T08:45:24;6.07;;;4.80;;
45358;SDS011;31096;49.292;8.710;2023-06-10T08:50:22;5.78;;;4.35;;
45358;SDS011;31096;49.292;8.710;2023-06-10T08:55:21;7.25;;;5.35;;
45358;SDS011;31096;49.292;8.710;2023-06-10T09:00:18;5.70;;;4.63;;
45358;SDS011;31096;49.292;8.710;2023-06-10T09:05:09;6.75;;;5.05;;
45358;SDS011;31096;49.292;8.710;2023-06-10T09:09:59;6.57;;;5.00;;
45358;SDS011;31096;49.292;8.710;2023-06-10T09:14:53;5.93;;;4.53;;
45358;SDS011;31096;49.292;8.710;2023-06-10T09:19:44;6.53;;;5.10;;
45358;SDS011;31096;49.292;8.710;2023-06-10T09:24:36;5.90;;;5.03;;
45358;SDS011;31096;49.292;8.710;2023-06-10T09:29:27;6.67;;;5.50;;
45358;SDS011;31096;49.292;8.710;2023-06-10T09:34:18;6.65;;;5.30;;
45358;SDS011;31096;49.292;8.710;2023-06-10T09:39:15;6.90;;;5.23;;
45358;SDS011;31096;49.292;8.710;2023-06-10T09:44:20;6.88;;;5.47;;
45358;SDS011;31096;49.292;8.710;2023-06-10T09:49:11;6.43;;;5.00;;
45358;SDS011;31096;49.292;8.710;2023-06-10T09:54:02;5.73;;;5.03;;
45358;SDS011;31096;49.292;8.710;2023-06-10T09:58:54;7.50;;;5.10;;
45358;SDS011;31096;49.292;8.710;2023-06-10T10:08:36;6.40;;;5.00;;
45358;SDS011;31096;49.292;8.710;2023-06-10T10:13:26;5.93;;;5.07;;
45358;SDS011;31096;49.292;8.710;2023-06-10T10:18:18;6.78;;;4.90;;
45358;SDS011;31096;49.292;8.710;2023-06-10T10:23:12;6.07;;;5.47;;
45358;SDS011;31096;49.292;8.710;2023-06-10T10:28:09;6.68;;;5.63;;
45358;SDS011;31096;49.292;8.710;2023-06-10T10:33:05;7.70;;;5.63;;
45358;SDS011;31096;49.292;8.710;2023-06-10T10:38:21;6.67;;;5.60;;
45358;SDS011;31096;49.292;8.710;2023-06-10T10:43:12;5.80;;;5.13;;
45358;SDS011;31096;49.292;8.710;2023-06-10T10:48:07;7.53;;;4.85;;
45358;SDS011;31096;49.292;8.710;2023-06-10T10:53:02;6.37;;;5.47;;
45358;SDS011;31096;49.292;8.710;2023-06-10T10:57:59;6.43;;;5.50;;
45358;SDS011;31096;49.292;8.710;2023-06-10T11:02:53;7.45;;;5.45;;
45358;SDS011;31096;49.292;8.710;2023-06-10T11:07:58;6.05;;;4.78;;
45358;SDS011;31096;49.292;8.710;2023-06-10T11:12:50;5.77;;;4.80;;
45358;SDS011;31096;49.292;8.710;2023-06-10T11:23:01;6.17;;;5.10;;
45358;SDS011;31096;49.292;8.710;2023-06-10T11:27:52;6.13;;;4.93;;
45358;SDS011;31096;49.292;8.710;2023-06-10T11:32:43;6.40;;;4.40;;
45358;SDS011;31096;49.292;8.710;2023-06-10T11:37:34;6.33;;;5.17;;
45358;SDS011;31096;49.292;8.710;2023-06-10T11:42:26;6.20;;;5.00;;
45358;SDS011;31096;49.292;8.710;2023-06-10T11:47:17;6.13;;;4.97;;
45358;SDS011;31096;49.292;8.710;2023-06-10T11:52:08;5.50;;;4.57;;
45358;SDS011;31096;49.292;8.710;2023-06-10T11:56:59;5.30;;;4.30;;
45358;SDS011;31096;49.292;8.710;2023-06-10T12:01:50;5.50;;;4.22;;
45358;SDS011;31096;49.292;8.710;2023-06-10T12:06:41;5.47;;;4.55;;
45358;SDS011;31096;49.292;8.710;2023-06-10T12:11:33;5.23;;;4.47;;
45358;SDS011;31096;49.292;8.710;2023-06-10T12:16:24;5.97;;;4.88;;
45358;SDS011;31096;49.292;8.710;2023-06-10T12:21:19;5.90;;;4.80;;
45358;SDS011;31096;49.292;8.710;2023-06-10T12:26:13;6.13;;;4.68;;
45358;SDS011;31096;49.292;8.710;2023-06-10T12:31:07;7.53;;;4.53;;
45358;SDS011;31096;49.292;8.710;2023-06-10T12:35:58;6.07;;;4.83;;
45358;SDS011;31096;49.292;8.710;2023-06-10T12:40:50;5.40;;;4.00;;
45358;SDS011;31096;49.292;8.710;2023-06-10T12:45:41;5.57;;;4.85;;
45358;SDS011;31096;49.292;8.710;2023-06-10T12:50:35;6.43;;;4.47;;
45358;SDS011;31096;49.292;8.710;2023-06-10T12:55:30;5.55;;;4.28;;
45358;SDS011;31096;49.292;8.710;2023-06-10T13:00:22;5.43;;;4.45;;
45358;SDS011;31096;49.292;8.710;2023-06-10T13:05:16;8.97;;;4.37;;
45358;SDS011;31096;49.292;8.710;2023-06-10T13:10:08;5.30;;;4.57;;
45358;SDS011;31096;49.292;8.710;2023-06-10T13:14:59;5.03;;;4.03;;
45358;SDS011;31096;49.292;8.710;2023-06-10T13:19:51;4.97;;;4.32;;
45358;SDS011;31096;49.292;8.710;2023-06-10T13:24:42;6.30;;;4.03;;
45358;SDS011;31096;49.292;8.710;2023-06-10T13:29:33;5.20;;;4.43;;
45358;SDS011;31096;49.292;8.710;2023-06-10T13:34:24;5.50;;;4.80;;
45358;SDS011;31096;49.292;8.710;2023-06-10T13:39:15;5.40;;;4.15;;
45358;SDS011;31096;49.292;8.710;2023-06-10T13:44:06;5.50;;;4.40;;
45358;SDS011;31096;49.292;8.710;2023-06-10T13:48:57;5.75;;;4.53;;
45358;SDS011;31096;49.292;8.710;2023-06-10T13:53:48;6.13;;;4.40;;
45358;SDS011;31096;49.292;8.710;2023-06-10T13:58:38;5.40;;;4.20;;
45358;SDS011;31096;49.292;8.710;2023-06-10T14:09:14;4.85;;;4.03;;
45358;SDS011;31096;49.292;8.710;2023-06-10T14:14:06;5.75;;;4.70;;
45358;SDS011;31096;49.292;8.710;2023-06-10T14:25:03;4.95;;;3.95;;
45358;SDS011;31096;49.292;8.710;2023-06-10T14:29:55;5.07;;;4.10;;
45358;SDS011;31096;49.292;8.710;2023-06-10T14:34:45;5.47;;;4.53;;
45358;SDS011;31096;49.292;8.710;2023-06-10T14:39:37;5.28;;;4.20;;
45358;SDS011;31096;49.292;8.710;2023-06-10T14:44:27;5.50;;;4.53;;
45358;SDS011;31096;49.292;8.710;2023-06-10T14:49:18;5.70;;;4.90;;
45358;SDS011;31096;49.292;8.710;2023-06-10T14:54:08;5.37;;;4.53;;
45358;SDS011;31096;49.292;8.710;2023-06-10T14:58:59;5.78;;;4.72;;
45358;SDS011;31096;49.292;8.710;2023-06-10T15:03:50;6.23;;;4.60;;
45358;SDS011;31096;49.292;8.710;2023-06-10T15:08:41;5.57;;;4.82;;
45358;SDS011;31096;49.292;8.710;2023-06-10T15:13:32;5.80;;;5.20;;
45358;SDS011;31096;49.292;8.710;2023-06-10T15:18:23;6.40;;;5.40;;
45358;SDS011;31096;49.292;8.710;2023-06-10T15:23:13;6.03;;;5.03;;
45358;SDS011;31096;49.292;8.710;2023-06-10T15:28:04;5.80;;;4.83;;
45358;SDS011;31096;49.292;8.710;2023-06-10T15:32:55;5.50;;;4.65;;
45358;SDS011;31096;49.292;8.710;2023-06-10T15:37:47;6.28;;;5.15;;
45358;SDS011;31096;49.292;8.710;2023-06-10T15:42:38;6.77;;;4.43;;
45358;SDS011;31096;49.292;8.710;2023-06-10T15:47:28;7.57;;;4.67;;
45358;SDS011;31096;49.292;8.710;2023-06-10T15:52:19;5.40;;;4.68;;
45358;SDS011;31096;49.292;8.710;2023-06-10T15:57:10;5.17;;;4.03;;
45358;SDS011;31096;49.292;8.710;2023-06-10T16:02:00;5.57;;;4.60;;
45358;SDS011;31096;49.292;8.710;2023-06-10T16:06:53;6.95;;;4.75;;
45358;SDS011;31096;49.292;8.710;2023-06-10T16:11:44;5.68;;;4.30;;
45358;SDS011;31096;49.292;8.710;2023-06-10T16:16:35;6.43;;;4.37;;
45358;SDS011;31096;49.292;8.710;2023-06-10T16:21:25;6.63;;;4.43;;
45358;SDS011;31096;49.292;8.710;2023-06-10T16:26:16;6.70;;;4.40;;
45358;SDS011;31096;49.292;8.710;2023-06-10T16:31:07;5.82;;;4.68;;
45358;SDS011;31096;49.292;8.710;2023-06-10T16:35:58;5.20;;;4.23;;
45358;SDS011;31096;49.292;8.710;2023-06-10T16:40:49;5.53;;;4.40;;
45358;SDS011;31096;49.292;8.710;2023-06-10T16:45:39;6.07;;;4.50;;
45358;SDS011;31096;49.292;8.710;2023-06-10T16:50:30;6.23;;;4.30;;
45358;SDS011;31096;49.292;8.710;2023-06-10T16:55:21;5.63;;;4.60;;
45358;SDS011;31096;49.292;8.710;2023-06-10T17:00:11;5.43;;;4.50;;
45358;SDS011;31096;49.292;8.710;2023-06-10T17:05:03;5.50;;;4.63;;
45358;SDS011;31096;49.292;8.710;2023-06-10T17:09:54;5.40;;;4.33;;
45358;SDS011;31096;49.292;8.710;2023-06-10T17:14:45;6.22;;;4.65;;
45358;SDS011;31096;49.292;8.710;2023-06-10T17:19:37;5.33;;;4.80;;
45358;SDS011;31096;49.292;8.710;2023-06-10T17:24:27;5.13;;;4.10;;
45358;SDS011;31096;49.292;8.710;2023-06-10T17:29:18;5.63;;;4.67;;
45358;SDS011;31096;49.292;8.710;2023-06-10T17:34:09;5.82;;;4.32;;
45358;SDS011;31096;49.292;8.710;2023-06-10T17:38:59;5.17;;;4.07;;
45358;SDS011;31096;49.292;8.710;2023-06-10T17:43:50;5.57;;;4.10;;
45358;SDS011;31096;49.292;8.710;2023-06-10T17:48:41;6.07;;;4.20;;
45358;SDS011;31096;49.292;8.710;2023-06-10T17:53:32;5.00;;;3.80;;
45358;SDS011;31096;49.292;8.710;2023-06-10T17:58:22;5.27;;;3.40;;
45358;SDS011;31096;49.292;8.710;2023-06-10T18:03:13;4.82;;;3.58;;
45358;SDS011;31096;49.292;8.710;2023-06-10T18:08:07;5.60;;;4.15;;
45358;SDS011;31096;49.292;8.710;2023-06-10T18:12:57;4.57;;;3.57;;
45358;SDS011;31096;49.292;8.710;2023-06-10T18:17:49;4.28;;;3.33;;
45358;SDS011;31096;49.292;8.710;2023-06-10T18:22:40;4.80;;;3.60;;
45358;SDS011;31096;49.292;8.710;2023-06-10T18:27:31;4.83;;;3.23;;
45358;SDS011;31096;49.292;8.710;2023-06-10T18:32:22;4.55;;;3.38;;
45358;SDS011;31096;49.292;8.710;2023-06-10T18:37:13;5.57;;;3.40;;
45358;SDS011;31096;49.292;8.710;2023-06-10T18:42:04;4.70;;;3.83;;
45358;SDS011;31096;49.292;8.710;2023-06-10T18:46:55;6.00;;;4.30;;
45358;SDS011;31096;49.292;8.710;2023-06-10T18:51:46;4.93;;;4.03;;
45358;SDS011;31096;49.292;8.710;2023-06-10T18:56:37;5.17;;;3.70;;
45358;SDS011;31096;49.292;8.710;2023-06-10T19:01:28;5.35;;;4.00;;
45358;SDS011;31096;49.292;8.710;2023-06-10T19:06:19;8.68;;;4.25;;
45358;SDS011;31096;49.292;8.710;2023-06-10T19:11:10;6.47;;;4.10;;
45358;SDS011;31096;49.292;8.710;2023-06-10T19:16:03;5.10;;;4.13;;
45358;SDS011;31096;49.292;8.710;2023-06-10T19:20:54;4.53;;;3.40;;
45358;SDS011;31096;49.292;8.710;2023-06-10T19:25:45;5.25;;;3.47;;
45358;SDS011;31096;49.292;8.710;2023-06-10T19:30:35;7.13;;;3.80;;
45358;SDS011;31096;49.292;8.710;2023-06-10T19:35:28;5.20;;;3.95;;
45358;SDS011;31096;49.292;8.710;2023-06-10T19:40:19;5.30;;;3.10;;
45358;SDS011;31096;49.292;8.710;2023-06-10T19:45:11;5.05;;;3.50;;
45358;SDS011;31096;49.292;8.710;2023-06-10T19:50:02;5.73;;;4.50;;
45358;SDS011;31096;49.292;8.710;2023-06-10T19:54:53;6.13;;;3.75;;
45358;SDS011;31096;49.292;8.710;2023-06-10T19:59:44;5.32;;;3.88;;
45358;SDS011;31096;49.292;8.710;2023-06-10T20:04:34;4.97;;;3.43;;
45358;SDS011;31096;49.292;8.710;2023-06-10T20:09:25;5.97;;;3.67;;
45358;SDS011;31096;49.292;8.710;2023-06-10T20:14:16;7.35;;;3.95;;
45358;SDS011;31096;49.292;8.710;2023-06-10T20:19:07;6.20;;;3.80;;
45358;SDS011;31096;49.292;8.710;2023-06-10T20:23:58;6.80;;;4.10;;
45358;SDS011;31096;49.292;8.710;2023-06-10T20:28:48;5.93;;;3.70;;
45358;SDS011;31096;49.292;8.710;2023-06-10T20:33:39;5.57;;;4.05;;
45358;SDS011;31096;49.292;8.710;2023-06-10T20:38:30;5.03;;;3.87;;
45358;SDS011;31096;49.292;8.710;2023-06-10T20:43:21;6.30;;;3.77;;
45358;SDS011;31096;49.292;8.710;2023-06-10T20:48:12;6.00;;;4.47;;
45358;SDS011;31096;49.292;8.710;2023-06-10T20:53:05;5.90;;;4.57;;
45358;SDS011;31096;49.292;8.710;2023-06-10T20:57:56;7.10;;;4.17;;
45358;SDS011;31096;49.292;8.710;2023-06-10T21:02:48;5.53;;;4.28;;
45358;SDS011;31096;49.292;8.710;2023-06-10T21:07:39;5.55;;;4.05;;
45358;SDS011;31096;49.292;8.710;2023-06-10T21:12:34;5.20;;;3.90;;
45358;SDS011;31096;49.292;8.710;2023-06-10T21:17:26;6.00;;;4.50;;
45358;SDS011;31096;49.292;8.710;2023-06-10T21:22:17;5.17;;;3.47;;
45358;SDS011;31096;49.292;8.710;2023-06-10T21:27:08;6.32;;;4.30;;
45358;SDS011;31096;49.292;8.710;2023-06-10T21:31:59;5.33;;;4.07;;
45358;SDS011;31096;49.292;8.710;2023-06-10T21:36:49;5.47;;;3.93;;
45358;SDS011;31096;49.292;8.710;2023-06-10T21:41:40;5.93;;;4.43;;
45358;SDS011;31096;49.292;8.710;2023-06-10T21:46:31;6.40;;;4.30;;
45358;SDS011;31096;49.292;8.710;2023-06-10T21:51:22;5.63;;;4.22;;
45358;SDS011;31096;49.292;8.710;2023-06-10T21:56:13;6.70;;;4.20;;
45358;SDS011;31096;49.292;8.710;2023-06-10T22:01:04;6.03;;;4.32;;
45358;SDS011;31096;49.292;8.710;2023-06-10T22:05:55;5.90;;;4.20;;
45358;SDS011;31096;49.292;8.710;2023-06-10T22:10:46;5.85;;;4.50;;
45358;SDS011;31096;49.292;8.710;2023-06-10T22:15:36;6.70;;;4.73;;
45358;SDS011;31096;49.292;8.710;2023-06-10T22:20:27;7.07;;;5.10;;
45358;SDS011;31096;49.292;8.710;2023-06-10T22:25:18;6.47;;;4.23;;
45358;SDS011;31096;49.292;8.710;2023-06-10T22:30:09;6.67;;;4.30;;
45358;SDS011;31096;49.292;8.710;2023-06-10T22:35:00;7.13;;;4.88;;
45358;SDS011;31096;49.292;8.710;2023-06-10T22:39:51;6.50;;;4.80;;
45358;SDS011;31096;49.292;8.710;2023-06-10T22:44:41;6.95;;;4.55;;
45358;SDS011;31096;49.292;8.710;2023-06-10T22:49:32;7.77;;;5.00;;
45358;SDS011;31096;49.292;8.710;2023-06-10T22:54:23;6.95;;;4.88;;
45358;SDS011;31096;49.292;8.710;2023-06-10T22:59:16;8.27;;;5.03;;
45358;SDS011;31096;49.292;8.710;2023-06-10T23:04:07;7.38;;;4.78;;
45358;SDS011;31096;49.292;8.710;2023-06-10T23:08:57;6.30;;;4.60;;
45358;SDS011;31096;49.292;8.710;2023-06-10T23:13:48;6.80;;;4.93;;
45358;SDS011;31096;49.292;8.710;2023-06-10T23:18:38;7.25;;;4.82;;
45358;SDS011;31096;49.292;8.710;2023-06-10T23:23:58;6.37;;;4.97;;
45358;SDS011;31096;49.292;8.710;2023-06-10T23:28:49;6.38;;;4.72;;
45358;SDS011;31096;49.292;8.710;2023-06-10T23:33:40;6.90;;;5.20;;
45358;SDS011;31096;49.292;8.710;2023-06-10T23:38:30;7.28;;;5.00;;
45358;SDS011;31096;49.292;8.710;2023-06-10T23:43:21;6.73;;;5.20;;
45358;SDS011;31096;49.292;8.710;2023-06-10T23:48:12;8.80;;;5.03;;
45358;SDS011;31096;49.292;8.710;2023-06-10T23:53:03;6.20;;;4.40;;
45358;SDS011;31096;49.292;8.710;2023-06-10T23:57:55;7.28;;;4.80;;
